Time;durP1;ratioP1;P1;durP2;ratioP2;P2;SDS_P1;SDS_P2;PMS_P1;PMS_P2;Temp;Humidity;BMP_temperature;BMP_pressure;BME280_temperature;BME280_humidity;BME280_pressure;Samples;Min_cycle;Max_cycle;Signal;HPM_P1;HPM_P2
2022/10/12 00:01:20;;;;;;;12.02;5.32;;;6.40;99.90;;;;;;5017454;28;20053;-71
2022/10/12 00:03:46;;;;;;;12.23;6.55;;;6.40;99.90;;;;;;5017380;28;20050;-70
2022/10/12 00:06:21;;;;;;;11.07;5.63;;;6.50;99.90;;;;;;5017005;28;20362;-72
2022/10/12 00:08:50;;;;;;;9.85;5.70;;;6.50;99.90;;;;;;5016966;28;20073;-71
2022/10/12 00:11:20;;;;;;;9.38;5.40;;;6.50;99.90;;;;;;5017703;28;20049;-69
2022/10/12 00:13:45;;;;;;;10.55;5.10;;;6.50;99.90;;;;;;5017179;28;20056;-71
2022/10/12 00:16:12;;;;;;;10.18;5.97;;;6.40;99.90;;;;;;4999455;28;20058;-71
2022/10/12 00:18:38;;;;;;;13.57;5.88;;;6.40;99.90;;;;;;5000000;28;20358;-70
2022/10/12 00:21:13;;;;;;;8.07;4.95;;;6.40;99.90;;;;;;4999999;28;20076;-71
2022/10/12 00:23:39;;;;;;;9.25;5.32;;;6.40;99.90;;;;;;5017180;28;20052;-72
2022/10/12 00:26:19;;;;;;;11.25;5.68;;;6.30;99.90;;;;;;5000010;28;20053;-70
2022/10/12 00:28:45;;;;;;;11.60;5.93;;;6.30;99.90;;;;;;5017374;28;20520;-70
2022/10/12 00:31:17;;;;;;;11.65;5.70;;;6.30;99.90;;;;;;5036317;28;20041;-71
2022/10/12 00:33:45;;;;;;;8.55;5.35;;;6.30;99.90;;;;;;5036444;28;20053;-70
2022/10/12 00:36:18;;;;;;;9.15;5.95;;;6.30;99.90;;;;;;5036505;28;20132;-71
2022/10/12 00:38:45;;;;;;;10.25;5.45;;;6.30;99.90;;;;;;5037196;28;20122;-70
2022/10/12 00:41:11;;;;;;;10.38;5.60;;;6.20;99.90;;;;;;5018893;28;20191;-73
2022/10/12 00:43:40;;;;;;;11.27;5.50;;;6.30;99.90;;;;;;5019272;28;20114;-70
2022/10/12 00:46:21;;;;;;;11.50;5.72;;;6.30;99.90;;;;;;5035574;28;20454;-70
2022/10/12 00:49:12;;;;;;;9.68;4.72;;;6.30;99.90;;;;;;5036385;28;20079;-70
2022/10/12 00:51:40;;;;;;;9.90;4.70;;;6.30;99.90;;;;;;5022761;28;20064;-71
2022/10/12 00:54:11;;;;;;;9.80;4.53;;;6.20;99.90;;;;;;5036058;28;20042;-70
2022/10/12 00:56:40;;;;;;;8.75;5.03;;;6.20;99.90;;;;;;5036443;28;20365;-70
2022/10/12 00:59:15;;;;;;;10.40;5.60;;;6.20;99.90;;;;;;5032743;28;20331;-71
2022/10/12 01:01:41;;;;;;;9.98;4.80;;;6.20;99.90;;;;;;5016466;28;20423;-70
2022/10/12 01:04:07;;;;;;;9.02;4.50;;;6.20;99.90;;;;;;5016142;28;20042;-70
2022/10/12 01:06:33;;;;;;;7.53;4.53;;;6.10;99.90;;;;;;5016115;28;20053;-70
2022/10/12 01:09:00;;;;;;;9.85;4.55;;;6.10;99.90;;;;;;5015691;28;20451;-72
2022/10/12 01:11:25;;;;;;;11.85;5.68;;;6.10;99.90;;;;;;4999142;28;20096;-72
2022/10/12 01:13:51;;;;;;;12.35;5.30;;;6.10;99.90;;;;;;4999957;28;20433;-70
2022/10/12 01:16:40;;;;;;;9.85;5.32;;;6.10;99.90;;;;;;4999242;28;20112;-69
2022/10/12 01:19:39;;;;;;;8.13;4.78;;;6.10;99.90;;;;;;5017296;28;20375;-70
2022/10/12 01:22:09;;;;;;;13.70;5.22;;;6.10;99.90;;;;;;5015826;28;20439;-70
2022/10/12 01:24:53;;;;;;;11.43;4.93;;;6.00;99.90;;;;;;5016175;28;20046;-70
2022/10/12 01:27:44;;;;;;;11.63;4.68;;;6.90;99.90;;;;;;5015603;28;20129;-71
2022/10/12 01:30:18;;;;;;;10.38;4.80;;;6.00;99.90;;;;;;5016090;28;20076;-70
2022/10/12 01:32:53;;;;;;;8.20;4.10;;;6.30;99.90;;;;;;5015756;28;20451;-70
2022/10/12 01:35:41;;;;;;;9.80;4.80;;;6.00;99.90;;;;;;5028637;28;20045;-71
2022/10/12 01:38:13;;;;;;;9.60;4.72;;;5.90;99.90;;;;;;5055419;28;20067;-69
2022/10/12 01:40:54;;;;;;;6.85;4.20;;;5.90;99.90;;;;;;5038137;28;20053;-70
2022/10/12 01:43:22;;;;;;;9.57;5.00;;;5.80;99.90;;;;;;5055291;28;20059;-70
2022/10/12 01:45:49;;;;;;;9.60;4.25;;;5.80;99.90;;;;;;5055436;28;20041;-71
2022/10/12 01:48:15;;;;;;;9.32;4.07;;;5.80;99.90;;;;;;5054647;28;20041;-70
2022/10/12 01:50:54;;;;;;;13.63;4.53;;;5.80;99.90;;;;;;5055248;28;20044;-70
2022/10/12 01:53:52;;;;;;;7.68;4.43;;;5.80;99.90;;;;;;5055063;28;20053;-72
2022/10/12 01:56:48;;;;;;;12.18;4.30;;;5.70;99.90;;;;;;5033286;28;20049;-69
2022/10/12 01:59:36;;;;;;;10.70;5.07;;;5.70;99.90;;;;;;5054711;28;20144;-71
2022/10/12 02:02:26;;;;;;;11.27;4.60;;;5.70;99.90;;;;;;5055488;28;20160;-70
2022/10/12 02:05:01;;;;;;;7.13;3.28;;;5.70;99.90;;;;;;5054795;28;20416;-71
2022/10/12 02:07:43;;;;;;;13.68;4.75;;;5.60;99.90;;;;;;5054701;28;20037;-69
2022/10/12 02:10:18;;;;;;;11.38;5.18;;;5.60;99.90;;;;;;5054684;28;20497;-71
2022/10/12 02:12:46;;;;;;;9.38;4.60;;;5.60;99.90;;;;;;5037832;28;20358;-69
2022/10/12 02:15:14;;;;;;;9.90;4.43;;;5.60;99.90;;;;;;5055234;28;20056;-71
2022/10/12 02:17:42;;;;;;;12.85;4.60;;;5.60;99.90;;;;;;5054750;28;20067;-70
2022/10/12 02:20:13;;;;;;;14.77;4.93;;;5.60;99.90;;;;;;5058607;28;20126;-70
2022/10/12 02:22:40;;;;;;;9.85;4.13;;;5.60;99.90;;;;;;5041382;28;20548;-70
2022/10/12 02:25:10;;;;;;;12.23;4.15;;;5.70;99.90;;;;;;5059150;28;20056;-70
2022/10/12 02:27:38;;;;;;;13.60;5.68;;;5.70;99.90;;;;;;5041281;28;20049;-70
2022/10/12 02:30:05;;;;;;;13.90;5.65;;;5.70;99.90;;;;;;5058740;28;20119;-69
2022/10/12 02:32:46;;;;;;;11.68;5.25;;;5.70;99.90;;;;;;5058366;28;20114;-71
2022/10/12 02:35:24;;;;;;;11.50;4.13;;;5.70;99.90;;;;;;5040821;28;20129;-70
2022/10/12 02:38:02;;;;;;;10.88;4.22;;;5.80;99.90;;;;;;5059013;28;20056;-69
2022/10/12 02:40:37;;;;;;;14.30;5.15;;;5.90;99.90;;;;;;5058466;28;20048;-69
2022/10/12 02:43:14;;;;;;;7.72;4.20;;;5.90;99.90;;;;;;5058626;28;20076;-70
2022/10/12 02:45:42;;;;;;;11.82;5.20;;;6.20;99.90;;;;;;5058501;28;20101;-70
2022/10/12 02:48:11;;;;;;;11.65;4.93;;;6.00;99.90;;;;;;5058185;28;20396;-72
2022/10/12 02:50:37;;;;;;;8.65;4.65;;;6.00;99.90;;;;;;5058660;28;20461;-70
2022/10/12 02:53:04;;;;;;;12.10;4.45;;;6.10;99.90;;;;;;5058337;28;20325;-69
2022/10/12 02:55:30;;;;;;;12.23;4.72;;;6.10;99.90;;;;;;5058182;28;20045;-70
2022/10/12 02:57:56;;;;;;;12.38;5.18;;;6.10;99.90;;;;;;5058537;28;20499;-69
2022/10/12 03:00:21;;;;;;;10.55;4.70;;;6.10;99.90;;;;;;5058880;28;20038;-70
2022/10/12 03:02:47;;;;;;;15.85;4.88;;;6.20;99.90;;;;;;5058366;28;20060;-70
2022/10/12 03:05:13;;;;;;;9.20;4.20;;;6.20;99.90;;;;;;5058189;28;20045;-69
2022/10/12 03:07:38;;;;;;;8.80;4.45;;;6.20;99.90;;;;;;5057938;28;20342;-69
2022/10/12 03:10:04;;;;;;;9.82;4.30;;;6.20;99.90;;;;;;5057893;28;20052;-69
2022/10/12 03:12:30;;;;;;;9.50;4.18;;;6.20;99.90;;;;;;5057522;28;20061;-70
2022/10/12 03:14:55;;;;;;;16.65;4.72;;;6.10;99.90;;;;;;5057906;28;20102;-71
2022/10/12 03:17:21;;;;;;;10.88;4.75;;;6.20;99.90;;;;;;5058090;28;20195;-69
2022/10/12 03:19:46;;;;;;;10.65;4.40;;;6.10;99.90;;;;;;5057992;28;20041;-70
2022/10/12 03:22:12;;;;;;;12.55;4.60;;;6.10;99.90;;;;;;5058289;28;20041;-70
2022/10/12 03:24:37;;;;;;;8.73;3.83;;;6.10;99.90;;;;;;5057678;28;20044;-70
2022/10/12 03:27:03;;;;;;;9.70;4.30;;;6.10;99.90;;;;;;5057603;28;20358;-69
2022/10/12 03:29:28;;;;;;;13.73;5.20;;;6.10;99.90;;;;;;5057453;28;20049;-70
2022/10/12 03:31:54;;;;;;;20.98;5.20;;;6.30;99.90;;;;;;5040100;28;20398;-69
2022/10/12 03:34:20;;;;;;;12.70;4.22;;;6.10;99.90;;;;;;5057490;28;20365;-70
2022/10/12 03:36:45;;;;;;;12.55;4.53;;;6.00;99.90;;;;;;5057028;28;20060;-71
2022/10/12 03:39:11;;;;;;;11.68;4.43;;;6.00;99.90;;;;;;5057418;28;20057;-69
2022/10/12 03:41:36;;;;;;;11.07;4.05;;;6.00;99.90;;;;;;5056916;28;20041;-70
2022/10/12 03:44:02;;;;;;;13.18;5.15;;;6.00;99.90;;;;;;5057221;28;20434;-68
2022/10/12 03:46:28;;;;;;;13.43;4.32;;;6.00;99.90;;;;;;5039620;28;20132;-70
2022/10/12 03:48:53;;;;;;;8.32;3.58;;;6.00;99.90;;;;;;5057326;28;20048;-71
2022/10/12 03:51:19;;;;;;;10.05;5.15;;;6.00;99.90;;;;;;5056927;28;20069;-69
2022/10/12 03:53:44;;;;;;;9.63;4.53;;;6.00;99.90;;;;;;5039939;28;20048;-71
2022/10/12 03:56:10;;;;;;;11.98;4.50;;;6.00;99.90;;;;;;5040056;28;20053;-69
2022/10/12 03:58:36;;;;;;;28.17;6.78;;;6.00;99.90;;;;;;5039072;28;20122;-70
2022/10/12 04:01:01;;;;;;;14.68;4.68;;;6.00;99.90;;;;;;5057041;28;20033;-69
2022/10/12 04:03:27;;;;;;;11.52;4.55;;;6.00;99.90;;;;;;5023127;28;20361;-71
2022/10/12 04:05:55;;;;;;;10.73;4.40;;;6.10;99.90;;;;;;5039356;28;20045;-70
2022/10/12 04:08:20;;;;;;;8.50;4.65;;;6.00;99.90;;;;;;5056553;28;20057;-70
2022/10/12 04:10:46;;;;;;;10.82;4.60;;;6.00;99.90;;;;;;5057224;28;20339;-70
2022/10/12 04:13:12;;;;;;;9.70;4.78;;;6.10;99.90;;;;;;5057068;28;20045;-70
2022/10/12 04:15:37;;;;;;;13.43;4.90;;;6.10;99.90;;;;;;5022591;28;20049;-70
2022/10/12 04:18:04;;;;;;;14.00;4.85;;;6.10;99.90;;;;;;5056965;28;20419;-70
2022/10/12 04:20:29;;;;;;;11.48;4.35;;;6.10;99.90;;;;;;5057035;28;20056;-71
2022/10/12 04:22:55;;;;;;;9.18;4.70;;;6.10;99.90;;;;;;5056876;28;20345;-70
2022/10/12 04:25:21;;;;;;;10.15;5.05;;;6.10;99.90;;;;;;5056948;28;20051;-72
2022/10/12 04:27:46;;;;;;;11.27;4.68;;;6.20;99.90;;;;;;5056805;28;20511;-70
2022/10/12 04:30:12;;;;;;;13.65;5.95;;;6.20;99.90;;;;;;5039032;28;20045;-69
2022/10/12 04:32:37;;;;;;;12.57;5.57;;;6.20;99.90;;;;;;5056531;28;20450;-71
2022/10/12 04:35:03;;;;;;;9.90;4.55;;;6.20;99.90;;;;;;5056565;28;20056;-69
2022/10/12 04:37:29;;;;;;;13.40;5.05;;;6.20;99.90;;;;;;5056333;28;20477;-70
2022/10/12 04:39:54;;;;;;;11.05;4.65;;;6.20;99.90;;;;;;5056385;28;20043;-72
2022/10/12 04:42:21;;;;;;;12.27;4.95;;;6.20;99.90;;;;;;5055723;28;20452;-70
2022/10/12 04:44:46;;;;;;;14.32;5.45;;;6.20;99.90;;;;;;5055796;28;20041;-69
2022/10/12 04:47:12;;;;;;;8.88;4.80;;;6.20;99.90;;;;;;5038432;28;20186;-70
2022/10/12 04:49:37;;;;;;;10.00;4.28;;;6.40;99.90;;;;;;5056951;28;20037;-71
2022/10/12 04:52:03;;;;;;;13.90;5.32;;;6.20;99.90;;;;;;5056080;28;20116;-69
2022/10/12 04:54:28;;;;;;;9.60;4.70;;;6.10;99.90;;;;;;5056514;28;20056;-70
2022/10/12 04:56:54;;;;;;;12.18;4.72;;;6.10;99.90;;;;;;5038700;28;20059;-70
2022/10/12 04:59:20;;;;;;;8.45;4.78;;;6.10;99.90;;;;;;5038414;28;20045;-70
2022/10/12 05:01:45;;;;;;;10.15;4.35;;;6.10;99.90;;;;;;5055802;28;20045;-70
2022/10/12 05:04:11;;;;;;;9.40;4.25;;;6.10;99.90;;;;;;5056113;28;20037;-69
2022/10/12 05:06:36;;;;;;;9.85;4.65;;;6.10;99.90;;;;;;5055539;28;20041;-70
2022/10/12 05:09:02;;;;;;;9.40;4.18;;;6.10;99.90;;;;;;5056454;28;20029;-70
2022/10/12 05:11:27;;;;;;;9.95;4.20;;;6.10;99.90;;;;;;5037994;28;20037;-71
2022/10/12 05:13:53;;;;;;;9.82;3.90;;;6.00;99.90;;;;;;5038037;28;20049;-69
2022/10/12 05:16:19;;;;;;;9.30;4.45;;;6.20;99.90;;;;;;5055824;28;20231;-70
2022/10/12 05:18:44;;;;;;;10.65;4.20;;;6.00;99.90;;;;;;5055528;28;20343;-70
2022/10/12 05:21:10;;;;;;;10.57;4.70;;;6.00;99.90;;;;;;5055857;28;20052;-69
2022/10/12 05:23:35;;;;;;;8.57;4.60;;;6.00;99.90;;;;;;5038284;28;20054;-69
2022/10/12 05:26:01;;;;;;;10.57;5.10;;;5.90;99.90;;;;;;5055536;28;20053;-70
2022/10/12 05:28:26;;;;;;;12.93;5.65;;;5.90;99.90;;;;;;5055714;28;20045;-71
2022/10/12 05:30:52;;;;;;;14.68;5.45;;;5.90;99.90;;;;;;5037260;28;20060;-70
2022/10/12 05:33:18;;;;;;;11.00;4.55;;;5.80;99.90;;;;;;5038155;28;20045;-71
2022/10/12 05:35:44;;;;;;;11.88;5.47;;;5.80;99.90;;;;;;5055264;28;20049;-71
2022/10/12 05:38:10;;;;;;;9.23;5.03;;;5.80;99.90;;;;;;5055466;28;20065;-69
2022/10/12 05:40:36;;;;;;;9.48;5.10;;;5.70;99.90;;;;;;5055250;28;20055;-72
2022/10/12 05:43:01;;;;;;;16.95;5.30;;;5.70;99.90;;;;;;5037515;28;20044;-69
2022/10/12 05:45:27;;;;;;;9.15;5.25;;;5.60;99.90;;;;;;5037575;28;20052;-70
2022/10/12 05:47:52;;;;;;;11.93;5.22;;;5.60;99.90;;;;;;5054945;28;20124;-69
2022/10/12 05:50:18;;;;;;;10.95;5.55;;;5.50;99.90;;;;;;5037892;28;20103;-70
2022/10/12 05:52:44;;;;;;;13.93;6.03;;;5.50;99.90;;;;;;5037321;28;20212;-72
2022/10/12 05:55:09;;;;;;;11.77;5.55;;;5.50;99.90;;;;;;5055027;28;20053;-71
2022/10/12 05:57:36;;;;;;;15.75;6.50;;;5.40;99.90;;;;;;5055194;28;20055;-70
2022/10/12 06:00:04;;;;;;;12.32;5.85;;;5.40;99.90;;;;;;5054489;28;20049;-69
2022/10/12 06:02:29;;;;;;;13.00;6.68;;;5.40;99.90;;;;;;5037029;28;20135;-70
2022/10/12 06:04:55;;;;;;;12.15;6.07;;;5.40;99.90;;;;;;5055247;28;20518;-70
2022/10/12 06:07:20;;;;;;;18.20;8.15;;;5.30;99.90;;;;;;5054886;28;20358;-70
2022/10/12 06:09:47;;;;;;;13.30;7.13;;;5.40;99.90;;;;;;5055001;28;20365;-69
2022/10/12 06:12:14;;;;;;;13.48;7.47;;;5.40;99.90;;;;;;5054952;28;20041;-70
2022/10/12 06:14:39;;;;;;;16.02;8.27;;;5.30;99.90;;;;;;5055245;28;20179;-70
2022/10/12 06:17:05;;;;;;;15.27;8.13;;;5.30;99.90;;;;;;5054376;28;20136;-69
2022/10/12 06:19:31;;;;;;;16.08;7.47;;;5.30;99.90;;;;;;5037925;28;20045;-70
2022/10/12 06:21:57;;;;;;;15.27;7.45;;;5.30;99.90;;;;;;5054676;28;20044;-70
2022/10/12 06:24:22;;;;;;;18.27;8.65;;;5.30;99.90;;;;;;5037609;28;20053;-70
2022/10/12 06:26:48;;;;;;;18.88;8.90;;;5.40;99.90;;;;;;5054777;28;20111;-69
2022/10/12 06:29:14;;;;;;;18.25;7.45;;;5.30;99.90;;;;;;5054491;28;20037;-71
2022/10/12 06:31:39;;;;;;;13.98;7.63;;;5.30;99.90;;;;;;5036937;28;20049;-70
2022/10/12 06:34:05;;;;;;;17.45;7.85;;;5.40;99.90;;;;;;5054495;28;20099;-70
2022/10/12 06:36:30;;;;;;;18.13;7.78;;;5.40;99.90;;;;;;5054552;28;20068;-71
2022/10/12 06:38:56;;;;;;;19.23;8.27;;;5.40;99.90;;;;;;5037290;28;20121;-70
2022/10/12 06:41:22;;;;;;;14.48;8.32;;;5.40;99.90;;;;;;5054541;28;20417;-69
2022/10/12 06:43:47;;;;;;;17.17;8.27;;;5.40;99.90;;;;;;5054929;28;20048;-70
2022/10/12 06:46:13;;;;;;;20.30;9.27;;;5.50;99.90;;;;;;5054300;28;20060;-71
2022/10/12 06:48:38;;;;;;;15.52;7.68;;;5.50;99.90;;;;;;5037389;28;20044;-69
2022/10/12 06:51:04;;;;;;;14.88;7.82;;;5.50;99.90;;;;;;5054439;28;20369;-71
2022/10/12 06:53:31;;;;;;;15.07;8.43;;;5.50;99.90;;;;;;5054611;28;20052;-70
2022/10/12 06:55:57;;;;;;;15.63;9.18;;;5.60;99.90;;;;;;5054449;28;20080;-70
2022/10/12 06:58:23;;;;;;;16.35;9.10;;;5.60;99.90;;;;;;5036496;28;20430;-70
2022/10/12 07:00:49;;;;;;;20.40;9.77;;;5.70;99.90;;;;;;5053988;28;20045;-71
2022/10/12 07:03:16;;;;;;;20.60;11.00;;;5.70;99.90;;;;;;5054493;28;20369;-70
2022/10/12 07:05:42;;;;;;;19.70;11.48;;;5.70;99.90;;;;;;5057090;28;20515;-70
2022/10/12 07:08:07;;;;;;;23.60;12.65;;;5.80;99.90;;;;;;5058227;28;20049;-71
2022/10/12 07:10:33;;;;;;;31.17;12.40;;;5.90;99.90;;;;;;5040723;28;20124;-71
2022/10/12 07:12:58;;;;;;;20.42;12.05;;;5.90;99.90;;;;;;5040610;28;20415;-71
2022/10/12 07:15:24;;;;;;;17.65;11.57;;;6.00;99.90;;;;;;5057239;28;20072;-70
2022/10/12 07:17:50;;;;;;;18.73;11.27;;;6.00;99.90;;;;;;5057851;28;20045;-70
2022/10/12 07:20:15;;;;;;;21.27;12.98;;;6.00;99.90;;;;;;5058099;28;20076;-71
2022/10/12 07:22:41;;;;;;;23.40;12.40;;;6.10;99.90;;;;;;5058118;28;20049;-71
2022/10/12 07:25:07;;;;;;;19.13;12.52;;;6.10;99.90;;;;;;5040547;28;20159;-71
2022/10/12 07:27:32;;;;;;;25.70;13.15;;;6.20;99.90;;;;;;5057940;28;20087;-70
2022/10/12 07:29:58;;;;;;;26.98;13.00;;;6.20;99.90;;;;;;5039902;28;20131;-69
2022/10/12 07:32:24;;;;;;;18.58;12.43;;;6.30;99.90;;;;;;5057478;28;20045;-70
2022/10/12 07:34:49;;;;;;;23.42;12.32;;;6.30;99.90;;;;;;5057070;28;20098;-70
2022/10/12 07:37:15;;;;;;;26.30;13.65;;;6.40;99.90;;;;;;5040336;28;20068;-70
2022/10/12 07:39:41;;;;;;;20.55;11.32;;;6.50;99.90;;;;;;5040674;28;20041;-72
2022/10/12 07:42:06;;;;;;;17.95;10.65;;;6.60;99.90;;;;;;5039884;28;20507;-70
2022/10/12 07:44:32;;;;;;;23.70;12.00;;;6.70;99.90;;;;;;5057211;28;20052;-70
2022/10/12 07:46:58;;;;;;;20.60;13.13;;;6.80;99.90;;;;;;5039894;28;20380;-70
2022/10/12 07:49:23;;;;;;;24.63;13.07;;;7.60;99.90;;;;;;5057268;28;20361;-69
2022/10/12 07:51:49;;;;;;;25.75;12.32;;;7.10;99.90;;;;;;5057008;28;20139;-70
2022/10/12 07:54:15;;;;;;;20.85;11.20;;;7.10;99.90;;;;;;5057657;28;20080;-69
2022/10/12 07:56:41;;;;;;;25.67;13.07;;;7.20;99.90;;;;;;5057491;28;20052;-70
2022/10/12 07:59:06;;;;;;;22.60;12.00;;;7.30;99.90;;;;;;5056859;28;20417;-70
2022/10/12 08:01:33;;;;;;;20.55;12.13;;;7.40;99.90;;;;;;5057514;28;20092;-71
2022/10/12 08:03:59;;;;;;;23.98;11.45;;;7.50;99.90;;;;;;5040062;28;20124;-69
2022/10/12 08:06:27;;;;;;;23.15;12.32;;;7.50;99.90;;;;;;5039916;28;20415;-72
2022/10/12 08:08:53;;;;;;;23.55;11.50;;;7.60;99.90;;;;;;5057209;28;20132;-72
2022/10/12 08:11:20;;;;;;;22.08;11.38;;;7.70;99.90;;;;;;5057146;28;20126;-70
2022/10/12 08:13:46;;;;;;;17.25;9.85;;;7.80;99.90;;;;;;5056771;28;20053;-71
2022/10/12 08:16:15;;;;;;;18.77;10.45;;;8.00;99.90;;;;;;5055880;28;20095;-70
2022/10/12 08:18:41;;;;;;;19.60;11.38;;;7.90;99.90;;;;;;5057413;28;20053;-71
2022/10/12 08:21:08;;;;;;;23.00;10.00;;;8.00;99.90;;;;;;5056647;28;20052;-70
2022/10/12 08:23:34;;;;;;;18.83;10.02;;;8.10;99.90;;;;;;5039463;28;20103;-70
2022/10/12 08:26:00;;;;;;;23.50;10.15;;;8.40;99.90;;;;;;5039365;28;20056;-70
2022/10/12 08:28:26;;;;;;;18.08;9.13;;;8.30;99.90;;;;;;5056353;28;20048;-72
2022/10/12 08:30:52;;;;;;;18.83;9.23;;;8.40;99.90;;;;;;5056475;28;20056;-71
2022/10/12 08:33:18;;;;;;;22.23;9.75;;;8.60;99.90;;;;;;5056951;28;20045;-70
2022/10/12 08:35:44;;;;;;;20.38;9.68;;;8.60;99.90;;;;;;5056200;28;20470;-71
2022/10/12 08:38:11;;;;;;;19.52;8.88;;;8.70;99.90;;;;;;5039078;28;20053;-70
2022/10/12 08:40:52;;;;;;;19.33;7.95;;;8.80;99.90;;;;;;5056411;28;20401;-69
2022/10/12 08:43:57;;;;;;;17.63;8.40;;;8.90;99.90;;;;;;5056250;28;20064;-70
2022/10/12 08:46:25;;;;;;;18.50;7.80;;;9.10;99.90;;;;;;5057073;28;20326;-71
2022/10/12 08:49:00;;;;;;;17.25;7.22;;;9.30;99.90;;;;;;5038374;28;20053;-70
2022/10/12 08:51:30;;;;;;;12.20;6.60;;;9.40;99.90;;;;;;5056468;28;20064;-69
2022/10/12 08:54:02;;;;;;;11.48;6.13;;;9.60;99.90;;;;;;5038711;28;20114;-70
2022/10/12 08:56:28;;;;;;;17.27;6.18;;;9.70;99.90;;;;;;5055896;28;20150;-71
2022/10/12 08:58:53;;;;;;;13.77;6.20;;;9.80;99.90;;;;;;5055053;28;20079;-70
2022/10/12 09:01:38;;;;;;;17.05;6.55;;;10.10;99.90;;;;;;5056351;28;20053;-70
2022/10/12 09:04:19;;;;;;;16.70;5.50;;;10.10;99.90;;;;;;5056119;28;20037;-70
2022/10/12 09:06:56;;;;;;;15.82;6.18;;;10.10;99.90;;;;;;5056462;28;20080;-70
2022/10/12 09:09:47;;;;;;;10.93;5.70;;;10.30;99.90;;;;;;5055992;28;20135;-70
2022/10/12 09:12:29;;;;;;;14.30;5.80;;;10.30;99.90;;;;;;5055971;28;20408;-70
2022/10/12 09:15:00;;;;;;;12.73;5.05;;;10.40;99.90;;;;;;5055667;28;20049;-70
2022/10/12 09:17:27;;;;;;;8.20;4.22;;;10.50;99.90;;;;;;5055299;28;20041;-70
2022/10/12 09:20:25;;;;;;;14.95;4.97;;;10.60;99.90;;;;;;5056003;28;20428;-71
2022/10/12 09:23:03;;;;;;;17.15;4.82;;;10.60;99.90;;;;;;5017579;28;20420;-70
2022/10/12 09:25:29;;;;;;;14.30;4.40;;;10.70;99.90;;;;;;5037298;28;20122;-69
2022/10/12 09:28:33;;;;;;;15.25;4.53;;;10.80;99.90;;;;;;5037841;28;20052;-70
2022/10/12 09:31:29;;;;;;;12.23;4.83;;;10.90;99.90;;;;;;5038130;28;20060;-70
2022/10/12 09:33:59;;;;;;;12.50;4.22;;;10.90;99.90;;;;;;5055380;28;20095;-69
2022/10/12 09:36:33;;;;;;;13.38;4.15;;;11.00;99.90;;;;;;5037763;28;20053;-71
2022/10/12 09:39:03;;;;;;;8.90;4.32;;;11.10;99.90;;;;;;5055441;28;20060;-71
2022/10/12 09:41:43;;;;;;;11.80;4.32;;;11.10;99.90;;;;;;5055384;28;20458;-70
2022/10/12 09:44:41;;;;;;;15.18;3.35;;;11.10;99.90;;;;;;5047654;28;20118;-70
2022/10/12 09:47:30;;;;;;;14.98;3.97;;;11.10;99.90;;;;;;5014063;28;20045;-69
2022/10/12 09:49:57;;;;;;;12.60;4.25;;;11.20;99.90;;;;;;5055407;28;20102;-70
2022/10/12 09:52:35;;;;;;;11.32;4.22;;;11.20;99.90;;;;;;5055460;28;20037;-70
2022/10/12 09:55:07;;;;;;;13.13;3.85;;;11.20;99.90;;;;;;5055253;28;20310;-72
2022/10/12 09:57:41;;;;;;;11.02;3.80;;;11.30;99.90;;;;;;5039406;28;20128;-70
2022/10/12 10:00:22;;;;;;;13.73;4.25;;;11.30;99.90;;;;;;5055006;28;20059;-70
2022/10/12 10:02:49;;;;;;;13.02;3.40;;;11.30;99.90;;;;;;5054925;28;20040;-71
2022/10/12 10:05:37;;;;;;;10.90;3.47;;;11.30;99.90;;;;;;5037463;28;20045;-70
2022/10/12 10:08:19;;;;;;;12.88;3.72;;;11.30;99.90;;;;;;5055043;28;20450;-70
2022/10/12 10:10:50;;;;;;;8.65;3.30;;;11.40;99.90;;;;;;5054908;28;20452;-70
2022/10/12 10:13:16;;;;;;;10.95;2.97;;;11.40;99.90;;;;;;5054504;28;20048;-71
2022/10/12 10:15:46;;;;;;;11.40;3.53;;;11.40;99.90;;;;;;5054991;28;20037;-69
2022/10/12 10:18:33;;;;;;;9.15;2.90;;;11.40;99.90;;;;;;5055352;28;20055;-70
2022/10/12 10:21:00;;;;;;;10.25;3.25;;;11.40;99.90;;;;;;5037161;28;20103;-70
2022/10/12 10:23:48;;;;;;;21.17;3.72;;;11.50;99.90;;;;;;5054989;28;20438;-72
2022/10/12 10:26:16;;;;;;;13.60;4.28;;;11.60;99.90;;;;;;5054692;28;20361;-70
2022/10/12 10:28:47;;;;;;;10.75;2.78;;;11.60;99.90;;;;;;5003488;28;20057;-71
2022/10/12 10:31:14;;;;;;;10.13;2.90;;;11.70;99.90;;;;;;5038070;28;20056;-71
2022/10/12 10:34:11;;;;;;;9.45;2.85;;;11.90;99.90;;;;;;5054398;28;20040;-70
2022/10/12 10:36:55;;;;;;;12.05;3.30;;;12.00;99.90;;;;;;5054441;28;20060;-70
2022/10/12 10:39:46;;;;;;;9.95;3.33;;;12.00;99.90;;;;;;5056120;28;20457;-71
2022/10/12 10:42:33;;;;;;;13.50;3.60;;;12.10;99.90;;;;;;5058379;28;20040;-71
2022/10/12 10:45:25;;;;;;;12.40;3.25;;;12.10;99.90;;;;;;5058611;28;20071;-71
2022/10/12 10:48:16;;;;;;;12.57;3.60;;;12.20;99.90;;;;;;5058674;28;20106;-70
2022/10/12 10:50:43;;;;;;;9.60;2.78;;;12.30;99.90;;;;;;5058368;28;20045;-70
2022/10/12 10:53:19;;;;;;;11.23;3.40;;;12.40;99.90;;;;;;5058481;28;20045;-71
2022/10/12 10:56:03;;;;;;;8.85;3.08;;;12.40;99.90;;;;;;5057901;28;20480;-70
2022/10/12 10:58:37;;;;;;;8.68;2.92;;;12.50;99.90;;;;;;5058447;28;20049;-71
2022/10/12 11:01:31;;;;;;;13.48;3.00;;;12.50;99.90;;;;;;5058191;28;20049;-71
2022/10/12 11:04:12;;;;;;;7.40;2.97;;;12.60;99.90;;;;;;5058312;28;20055;-71
2022/10/12 11:06:49;;;;;;;10.77;3.03;;;12.80;99.90;;;;;;5058189;28;20094;-70
2022/10/12 11:09:28;;;;;;;9.02;2.53;;;12.80;99.90;;;;;;5058396;28;20049;-71
2022/10/12 11:12:08;;;;;;;9.55;2.80;;;12.90;99.90;;;;;;5057863;28;20052;-71
2022/10/12 11:14:39;;;;;;;8.65;2.30;;;13.00;99.90;;;;;;5058231;28;20434;-71
2022/10/12 11:17:17;;;;;;;6.10;2.20;;;13.00;99.90;;;;;;5058236;28;20041;-70
2022/10/12 11:20:04;;;;;;;14.52;2.72;;;13.10;99.90;;;;;;5057631;28;20041;-71
2022/10/12 11:22:39;;;;;;;9.80;3.00;;;13.20;99.90;;;;;;5058012;28;20060;-70
2022/10/12 11:25:17;;;;;;;10.85;2.55;;;13.20;99.90;;;;;;5058052;28;20127;-70
2022/10/12 11:27:44;;;;;;;14.82;2.65;;;13.30;99.90;;;;;;5058040;28;20044;-72
2022/10/12 11:30:23;;;;;;;10.40;2.75;;;13.30;99.90;;;;;;5040392;28;20061;-71
2022/10/12 11:32:54;;;;;;;8.68;2.65;;;13.30;99.90;;;;;;5039904;28;20099;-70
2022/10/12 11:35:33;;;;;;;10.60;2.60;;;13.40;99.90;;;;;;5056841;28;20465;-71
2022/10/12 11:38:08;;;;;;;7.18;2.47;;;13.40;99.90;;;;;;5057754;28;20060;-70
2022/10/12 11:40:49;;;;;;;9.63;2.78;;;13.50;99.90;;;;;;5057691;28;20117;-71
2022/10/12 11:43:20;;;;;;;8.23;2.58;;;13.60;99.90;;;;;;5058017;28;20033;-71
2022/10/12 11:45:49;;;;;;;7.78;2.60;;;13.60;99.90;;;;;;5057641;28;20052;-70
2022/10/12 11:48:30;;;;;;;13.20;2.90;;;13.50;99.90;;;;;;5057198;28;20055;-70
2022/10/12 11:50:57;;;;;;;12.75;2.40;;;13.70;99.90;;;;;;5056209;28;20099;-71
2022/10/12 11:53:51;;;;;;;12.95;2.67;;;13.70;99.90;;;;;;5040114;28;20059;-69
2022/10/12 11:56:33;;;;;;;7.35;2.20;;;13.80;99.90;;;;;;5057332;28;20049;-72
2022/10/12 11:59:16;;;;;;;7.00;2.28;;;13.80;99.90;;;;;;5057352;28;20449;-69
2022/10/12 12:01:47;;;;;;;8.13;2.38;;;13.90;99.90;;;;;;5057113;28;20077;-71
2022/10/12 12:04:19;;;;;;;8.63;2.40;;;13.90;99.90;;;;;;5056599;28;20445;-70
2022/10/12 12:07:00;;;;;;;9.57;2.33;;;14.00;99.90;;;;;;5005629;28;20068;-72
2022/10/12 12:09:52;;;;;;;7.10;2.28;;;14.00;99.90;;;;;;5057269;28;20125;-70
2022/10/12 12:12:20;;;;;;;7.95;2.72;;;14.00;99.90;;;;;;5052976;28;20487;-71
2022/10/12 12:14:48;;;;;;;6.55;2.10;;;14.10;99.90;;;;;;5057078;28;20523;-69
2022/10/12 12:17:22;;;;;;;9.05;2.17;;;14.10;99.90;;;;;;5056770;28;20465;-72
2022/10/12 12:19:59;;;;;;;9.13;2.47;;;14.20;99.90;;;;;;5056660;28;20083;-70
2022/10/12 12:22:29;;;;;;;8.35;2.08;;;14.10;99.90;;;;;;5056658;28;20052;-70
2022/10/12 12:25:07;;;;;;;7.85;2.88;;;14.20;99.90;;;;;;5056602;28;20124;-71
2022/10/12 12:27:35;;;;;;;11.48;2.38;;;14.30;99.90;;;;;;5056779;28;20041;-70
2022/10/12 12:30:05;;;;;;;8.68;2.45;;;14.40;99.90;;;;;;5056871;28;20052;-69
2022/10/12 12:32:43;;;;;;;7.60;2.30;;;14.20;99.90;;;;;;5055924;28;20045;-71
2022/10/12 12:35:18;;;;;;;9.07;2.38;;;14.30;99.90;;;;;;5056010;28;20053;-73
2022/10/12 12:37:44;;;;;;;6.75;2.22;;;14.30;99.90;;;;;;5056452;28;20049;-70
2022/10/12 12:40:20;;;;;;;10.52;3.10;;;14.40;99.90;;;;;;5056508;28;20048;-70
2022/10/12 12:42:46;;;;;;;11.85;3.22;;;14.40;99.90;;;;;;5056064;28;20044;-70
2022/10/12 12:45:32;;;;;;;9.27;2.33;;;14.40;99.90;;;;;;5039076;28;20457;-72
2022/10/12 12:47:58;;;;;;;8.05;2.40;;;14.40;99.90;;;;;;5025285;28;20089;-71
2022/10/12 12:50:34;;;;;;;11.60;2.85;;;14.40;99.90;;;;;;5055717;28;20095;-70
2022/10/12 12:53:15;;;;;;;9.18;2.88;;;14.50;99.90;;;;;;5055973;28;20124;-70
2022/10/12 12:56:04;;;;;;;12.45;2.50;;;14.50;99.90;;;;;;5056277;28;20055;-70
2022/10/12 12:58:32;;;;;;;10.77;2.47;;;14.50;99.90;;;;;;5045198;28;20424;-72
2022/10/12 13:01:11;;;;;;;8.73;2.63;;;14.50;99.90;;;;;;5056121;28;20059;-70
2022/10/12 13:03:42;;;;;;;11.10;2.47;;;14.50;99.90;;;;;;5055333;28;20116;-70
2022/10/12 13:06:31;;;;;;;9.77;3.08;;;14.50;99.90;;;;;;5038216;28;20084;-69